sensor_id;sensor_type;location;lat;lon;timestamp;temperature;humidity
38263;DHT22;24054;50.128;19.730;2023-03-03T00:00:49;21.50;40.60
38263;DHT22;24054;50.128;19.730;2023-03-03T00:03:19;21.40;40.50
38263;DHT22;24054;50.128;19.730;2023-03-03T00:05:46;21.40;40.50
38263;DHT22;24054;50.128;19.730;2023-03-03T00:08:14;21.40;40.50
38263;DHT22;24054;50.128;19.730;2023-03-03T00:10:41;21.40;40.40
38263;DHT22;24054;50.128;19.730;2023-03-03T00:13:14;21.40;40.50
38263;DHT22;24054;50.128;19.730;2023-03-03T00:15:42;21.40;40.40
38263;DHT22;24054;50.128;19.730;2023-03-03T00:18:20;21.40;40.40
38263;DHT22;24054;50.128;19.730;2023-03-03T00:20:51;21.30;40.30
38263;DHT22;24054;50.128;19.730;2023-03-03T00:23:40;21.30;40.30
38263;DHT22;24054;50.128;19.730;2023-03-03T00:26:17;21.30;40.30
38263;DHT22;24054;50.128;19.730;2023-03-03T00:28:47;21.30;40.20
38263;DHT22;24054;50.128;19.730;2023-03-03T00:31:17;21.30;40.20
38263;DHT22;24054;50.128;19.730;2023-03-03T00:33:47;21.30;40.20
38263;DHT22;24054;50.128;19.730;2023-03-03T00:36:30;21.20;40.10
38263;DHT22;24054;50.128;19.730;2023-03-03T00:39:25;21.20;40.10
38263;DHT22;24054;50.128;19.730;2023-03-03T00:41:52;21.20;40.10
38263;DHT22;24054;50.128;19.730;2023-03-03T00:44:38;21.20;40.00
38263;DHT22;24054;50.128;19.730;2023-03-03T00:47:25;21.20;40.00
38263;DHT22;24054;50.128;19.730;2023-03-03T00:49:53;21.20;40.00
38263;DHT22;24054;50.128;19.730;2023-03-03T00:52:21;21.20;40.00
38263;DHT22;24054;50.128;19.730;2023-03-03T00:54:52;21.10;39.90
38263;DHT22;24054;50.128;19.730;2023-03-03T00:57:19;21.10;39.80
38263;DHT22;24054;50.128;19.730;2023-03-03T00:59:45;21.10;39.90
38263;DHT22;24054;50.128;19.730;2023-03-03T01:02:12;21.10;39.80
38263;DHT22;24054;50.128;19.730;2023-03-03T01:04:40;21.10;39.80
38263;DHT22;24054;50.128;19.730;2023-03-03T01:07:08;21.00;39.70
38263;DHT22;24054;50.128;19.730;2023-03-03T01:09:35;21.10;39.80
38263;DHT22;24054;50.128;19.730;2023-03-03T01:12:04;21.10;39.80
38263;DHT22;24054;50.128;19.730;2023-03-03T01:14:31;21.00;39.70
38263;DHT22;24054;50.128;19.730;2023-03-03T01:16:58;21.00;39.70
38263;DHT22;24054;50.128;19.730;2023-03-03T01:19:25;21.00;39.70
38263;DHT22;24054;50.128;19.730;2023-03-03T01:21:52;21.00;39.80
38263;DHT22;24054;50.128;19.730;2023-03-03T01:24:20;21.00;39.70
38263;DHT22;24054;50.128;19.730;2023-03-03T01:26:47;21.00;39.70
38263;DHT22;24054;50.128;19.730;2023-03-03T01:29:15;21.00;39.70
38263;DHT22;24054;50.128;19.730;2023-03-03T01:31:42;21.00;39.60
38263;DHT22;24054;50.128;19.730;2023-03-03T01:34:09;21.00;39.60
38263;DHT22;24054;50.128;19.730;2023-03-03T01:36:36;20.90;39.60
38263;DHT22;24054;50.128;19.730;2023-03-03T01:39:03;20.90;39.50
38263;DHT22;24054;50.128;19.730;2023-03-03T01:41:31;20.90;39.60
38263;DHT22;24054;50.128;19.730;2023-03-03T01:43:59;20.90;39.50
38263;DHT22;24054;50.128;19.730;2023-03-03T01:46:33;20.90;39.50
38263;DHT22;24054;50.128;19.730;2023-03-03T01:49:06;20.90;39.50
38263;DHT22;24054;50.128;19.730;2023-03-03T01:51:38;20.90;39.50
38263;DHT22;24054;50.128;19.730;2023-03-03T01:54:13;20.90;39.40
38263;DHT22;24054;50.128;19.730;2023-03-03T01:56:43;20.80;39.90
38263;DHT22;24054;50.128;19.730;2023-03-03T01:59:13;20.80;39.30
38263;DHT22;24054;50.128;19.730;2023-03-03T02:01:45;20.80;39.30
38263;DHT22;24054;50.128;19.730;2023-03-03T02:04:12;20.80;39.30
38263;DHT22;24054;50.128;19.730;2023-03-03T02:06:44;20.80;39.30
38263;DHT22;24054;50.128;19.730;2023-03-03T02:09:16;20.80;39.20
38263;DHT22;24054;50.128;19.730;2023-03-03T02:11:46;20.80;39.20
38263;DHT22;24054;50.128;19.730;2023-03-03T02:14:14;20.70;39.10
38263;DHT22;24054;50.128;19.730;2023-03-03T02:16:43;20.70;39.10
38263;DHT22;24054;50.128;19.730;2023-03-03T02:19:12;20.70;39.10
38263;DHT22;24054;50.128;19.730;2023-03-03T02:21:42;20.70;39.20
38263;DHT22;24054;50.128;19.730;2023-03-03T02:24:14;20.70;39.10
38263;DHT22;24054;50.128;19.730;2023-03-03T02:26:44;20.70;39.00
38263;DHT22;24054;50.128;19.730;2023-03-03T02:29:11;20.70;39.00
38263;DHT22;24054;50.128;19.730;2023-03-03T02:31:38;20.60;39.00
38263;DHT22;24054;50.128;19.730;2023-03-03T02:34:05;20.70;39.00
38263;DHT22;24054;50.128;19.730;2023-03-03T02:36:34;20.70;38.90
38263;DHT22;24054;50.128;19.730;2023-03-03T02:39:04;20.60;38.80
38263;DHT22;24054;50.128;19.730;2023-03-03T02:41:35;20.60;38.80
38263;DHT22;24054;50.128;19.730;2023-03-03T02:44:07;20.60;38.80
38263;DHT22;24054;50.128;19.730;2023-03-03T02:46:36;20.60;38.80
38263;DHT22;24054;50.128;19.730;2023-03-03T02:49:05;20.60;38.80
38263;DHT22;24054;50.128;19.730;2023-03-03T02:51:32;20.60;38.80
38263;DHT22;24054;50.128;19.730;2023-03-03T02:53:59;20.60;38.80
38263;DHT22;24054;50.128;19.730;2023-03-03T02:56:27;20.50;38.70
38263;DHT22;24054;50.128;19.730;2023-03-03T02:58:54;20.50;38.70
38263;DHT22;24054;50.128;19.730;2023-03-03T03:01:22;20.50;38.70
38263;DHT22;24054;50.128;19.730;2023-03-03T03:03:49;20.50;38.70
38263;DHT22;24054;50.128;19.730;2023-03-03T03:06:16;20.50;38.70
38263;DHT22;24054;50.128;19.730;2023-03-03T03:08:43;20.50;38.60
38263;DHT22;24054;50.128;19.730;2023-03-03T03:11:10;20.50;38.70
38263;DHT22;24054;50.128;19.730;2023-03-03T03:13:37;20.50;38.60
38263;DHT22;24054;50.128;19.730;2023-03-03T03:16:04;20.40;38.60
38263;DHT22;24054;50.128;19.730;2023-03-03T03:18:33;20.40;38.50
38263;DHT22;24054;50.128;19.730;2023-03-03T03:21:05;20.40;38.50
38263;DHT22;24054;50.128;19.730;2023-03-03T03:23:33;20.50;38.50
38263;DHT22;24054;50.128;19.730;2023-03-03T03:26:00;20.40;38.50
38263;DHT22;24054;50.128;19.730;2023-03-03T03:28:27;20.40;38.50
38263;DHT22;24054;50.128;19.730;2023-03-03T03:30:54;20.40;38.50
38263;DHT22;24054;50.128;19.730;2023-03-03T03:33:22;20.40;38.50
38263;DHT22;24054;50.128;19.730;2023-03-03T03:35:50;20.40;38.40
38263;DHT22;24054;50.128;19.730;2023-03-03T03:38:17;20.40;38.40
38263;DHT22;24054;50.128;19.730;2023-03-03T03:40:44;20.40;38.40
38263;DHT22;24054;50.128;19.730;2023-03-03T03:43:11;20.30;38.40
38263;DHT22;24054;50.128;19.730;2023-03-03T03:45:41;20.30;38.30
38263;DHT22;24054;50.128;19.730;2023-03-03T03:48:08;20.30;38.30
38263;DHT22;24054;50.128;19.730;2023-03-03T03:50:35;20.30;38.30
38263;DHT22;24054;50.128;19.730;2023-03-03T03:53:04;20.30;38.30
38263;DHT22;24054;50.128;19.730;2023-03-03T03:55:31;20.30;38.30
38263;DHT22;24054;50.128;19.730;2023-03-03T03:57:58;20.30;38.30
38263;DHT22;24054;50.128;19.730;2023-03-03T04:00:25;20.30;38.20
38263;DHT22;24054;50.128;19.730;2023-03-03T04:02:52;20.30;38.20
38263;DHT22;24054;50.128;19.730;2023-03-03T04:05:19;20.30;38.20
38263;DHT22;24054;50.128;19.730;2023-03-03T04:07:46;20.30;38.20
38263;DHT22;24054;50.128;19.730;2023-03-03T04:10:15;20.20;38.10
38263;DHT22;24054;50.128;19.730;2023-03-03T04:12:42;20.20;38.10
38263;DHT22;24054;50.128;19.730;2023-03-03T04:15:11;20.20;38.10
38263;DHT22;24054;50.128;19.730;2023-03-03T04:17:39;20.20;38.10
38263;DHT22;24054;50.128;19.730;2023-03-03T04:20:08;20.20;38.00
38263;DHT22;24054;50.128;19.730;2023-03-03T04:22:36;20.20;38.00
38263;DHT22;24054;50.128;19.730;2023-03-03T04:25:04;20.20;38.00
38263;DHT22;24054;50.128;19.730;2023-03-03T04:27:33;20.20;38.00
38263;DHT22;24054;50.128;19.730;2023-03-03T04:30:01;20.20;38.00
38263;DHT22;24054;50.128;19.730;2023-03-03T04:32:29;20.10;37.90
38263;DHT22;24054;50.128;19.730;2023-03-03T04:34:58;20.10;37.90
38263;DHT22;24054;50.128;19.730;2023-03-03T04:37:25;20.10;37.90
38263;DHT22;24054;50.128;19.730;2023-03-03T04:39:52;20.10;37.90
38263;DHT22;24054;50.128;19.730;2023-03-03T04:42:19;20.10;37.90
38263;DHT22;24054;50.128;19.730;2023-03-03T04:44:50;20.10;37.80
38263;DHT22;24054;50.128;19.730;2023-03-03T04:47:17;20.10;37.90
38263;DHT22;24054;50.128;19.730;2023-03-03T04:49:44;20.10;37.80
38263;DHT22;24054;50.128;19.730;2023-03-03T04:52:10;20.10;37.80
38263;DHT22;24054;50.128;19.730;2023-03-03T04:54:37;20.10;37.80
38263;DHT22;24054;50.128;19.730;2023-03-03T04:57:04;20.00;37.70
38263;DHT22;24054;50.128;19.730;2023-03-03T04:59:32;20.00;37.70
38263;DHT22;24054;50.128;19.730;2023-03-03T05:02:00;20.00;37.70
38263;DHT22;24054;50.128;19.730;2023-03-03T05:04:29;20.00;37.70
38263;DHT22;24054;50.128;19.730;2023-03-03T05:06:56;20.00;37.70
38263;DHT22;24054;50.128;19.730;2023-03-03T05:09:23;20.00;37.70
38263;DHT22;24054;50.128;19.730;2023-03-03T05:11:50;20.00;37.60
38263;DHT22;24054;50.128;19.730;2023-03-03T05:14:18;20.00;37.60
38263;DHT22;24054;50.128;19.730;2023-03-03T05:16:45;20.00;37.60
38263;DHT22;24054;50.128;19.730;2023-03-03T05:19:13;20.00;37.60
38263;DHT22;24054;50.128;19.730;2023-03-03T05:21:40;20.00;37.60
38263;DHT22;24054;50.128;19.730;2023-03-03T05:24:07;20.00;37.60
38263;DHT22;24054;50.128;19.730;2023-03-03T05:26:34;19.90;37.50
38263;DHT22;24054;50.128;19.730;2023-03-03T05:29:01;19.90;37.50
38263;DHT22;24054;50.128;19.730;2023-03-03T05:31:28;19.90;37.50
38263;DHT22;24054;50.128;19.730;2023-03-03T05:33:55;19.90;37.50
38263;DHT22;24054;50.128;19.730;2023-03-03T05:36:24;19.90;37.50
38263;DHT22;24054;50.128;19.730;2023-03-03T05:38:51;19.90;37.50
38263;DHT22;24054;50.128;19.730;2023-03-03T05:41:18;19.90;37.50
38263;DHT22;24054;50.128;19.730;2023-03-03T05:43:45;19.90;37.40
38263;DHT22;24054;50.128;19.730;2023-03-03T05:46:12;19.90;37.50
38263;DHT22;24054;50.128;19.730;2023-03-03T05:48:39;19.90;37.50
38263;DHT22;24054;50.128;19.730;2023-03-03T05:51:06;19.90;37.50
38263;DHT22;24054;50.128;19.730;2023-03-03T05:53:35;19.80;37.40
38263;DHT22;24054;50.128;19.730;2023-03-03T05:56:02;19.80;37.40
38263;DHT22;24054;50.128;19.730;2023-03-03T05:58:29;19.80;37.50
38263;DHT22;24054;50.128;19.730;2023-03-03T06:00:56;19.80;37.40
38263;DHT22;24054;50.128;19.730;2023-03-03T06:03:23;19.80;37.40
38263;DHT22;24054;50.128;19.730;2023-03-03T06:05:53;19.80;37.40
38263;DHT22;24054;50.128;19.730;2023-03-03T06:08:20;19.80;37.50
38263;DHT22;24054;50.128;19.730;2023-03-03T06:10:48;19.70;37.40
38263;DHT22;24054;50.128;19.730;2023-03-03T06:13:15;19.80;37.60
38263;DHT22;24054;50.128;19.730;2023-03-03T06:15:43;19.70;37.60
38263;DHT22;24054;50.128;19.730;2023-03-03T06:18:12;19.80;37.90
38263;DHT22;24054;50.128;19.730;2023-03-03T06:20:39;19.80;38.40
38263;DHT22;24054;50.128;19.730;2023-03-03T06:23:06;19.80;38.70
38263;DHT22;24054;50.128;19.730;2023-03-03T06:25:37;19.90;39.00
38263;DHT22;24054;50.128;19.730;2023-03-03T06:28:05;19.90;39.10
38263;DHT22;24054;50.128;19.730;2023-03-03T06:30:32;20.00;39.20
38263;DHT22;24054;50.128;19.730;2023-03-03T06:33:05;20.00;39.30
38263;DHT22;24054;50.128;19.730;2023-03-03T06:35:32;20.10;39.40
38263;DHT22;24054;50.128;19.730;2023-03-03T06:37:59;20.20;39.40
38263;DHT22;24054;50.128;19.730;2023-03-03T06:40:26;20.20;39.40
38263;DHT22;24054;50.128;19.730;2023-03-03T06:42:53;20.30;39.50
38263;DHT22;24054;50.128;19.730;2023-03-03T06:45:22;20.30;39.40
38263;DHT22;24054;50.128;19.730;2023-03-03T06:47:49;20.40;39.50
38263;DHT22;24054;50.128;19.730;2023-03-03T06:50:18;20.40;39.40
38263;DHT22;24054;50.128;19.730;2023-03-03T06:52:46;20.40;39.40
38263;DHT22;24054;50.128;19.730;2023-03-03T06:55:20;20.50;39.40
38263;DHT22;24054;50.128;19.730;2023-03-03T06:57:50;20.60;39.40
38263;DHT22;24054;50.128;19.730;2023-03-03T07:00:24;20.60;39.40
38263;DHT22;24054;50.128;19.730;2023-03-03T07:02:57;20.60;39.40
38263;DHT22;24054;50.128;19.730;2023-03-03T07:05:26;20.60;39.40
38263;DHT22;24054;50.128;19.730;2023-03-03T07:07:54;20.70;39.50
38263;DHT22;24054;50.128;19.730;2023-03-03T07:10:23;20.70;39.50
38263;DHT22;24054;50.128;19.730;2023-03-03T07:12:51;20.80;39.50
38263;DHT22;24054;50.128;19.730;2023-03-03T07:15:22;20.80;39.60
38263;DHT22;24054;50.128;19.730;2023-03-03T07:17:54;20.80;39.50
38263;DHT22;24054;50.128;19.730;2023-03-03T07:20:24;20.80;39.50
38263;DHT22;24054;50.128;19.730;2023-03-03T07:22:54;20.90;39.60
38263;DHT22;24054;50.128;19.730;2023-03-03T07:25:28;20.90;39.70
38263;DHT22;24054;50.128;19.730;2023-03-03T07:27:59;21.00;40.00
38263;DHT22;24054;50.128;19.730;2023-03-03T07:30:31;21.00;40.20
38263;DHT22;24054;50.128;19.730;2023-03-03T07:32:58;21.00;40.30
38263;DHT22;24054;50.128;19.730;2023-03-03T07:35:38;21.10;40.50
38263;DHT22;24054;50.128;19.730;2023-03-03T07:38:23;21.10;40.70
38263;DHT22;24054;50.128;19.730;2023-03-03T07:40:52;21.20;40.90
38263;DHT22;24054;50.128;19.730;2023-03-03T07:43:33;21.20;41.90
38263;DHT22;24054;50.128;19.730;2023-03-03T07:49:13;21.30;42.00
38263;DHT22;24054;50.128;19.730;2023-03-03T07:51:42;21.30;42.00
38263;DHT22;24054;50.128;19.730;2023-03-03T07:54:26;21.30;42.10
38263;DHT22;24054;50.128;19.730;2023-03-03T07:56:56;21.40;42.10
38263;DHT22;24054;50.128;19.730;2023-03-03T07:59:24;21.40;42.20
38263;DHT22;24054;50.128;19.730;2023-03-03T08:01:55;21.40;42.30
38263;DHT22;24054;50.128;19.730;2023-03-03T08:04:26;21.40;42.50
38263;DHT22;24054;50.128;19.730;2023-03-03T08:06:55;21.40;42.70
38263;DHT22;24054;50.128;19.730;2023-03-03T08:09:34;21.50;42.90
38263;DHT22;24054;50.128;19.730;2023-03-03T08:12:19;21.50;43.20
38263;DHT22;24054;50.128;19.730;2023-03-03T08:14:53;21.50;43.20
38263;DHT22;24054;50.128;19.730;2023-03-03T08:17:27;21.60;44.30
38263;DHT22;24054;50.128;19.730;2023-03-03T08:20:00;21.60;44.50
38263;DHT22;24054;50.128;19.730;2023-03-03T08:22:32;21.60;44.30
38263;DHT22;24054;50.128;19.730;2023-03-03T08:25:01;21.60;45.00
38263;DHT22;24054;50.128;19.730;2023-03-03T08:27:28;21.70;44.80
38263;DHT22;24054;50.128;19.730;2023-03-03T08:29:55;21.70;44.20
38263;DHT22;24054;50.128;19.730;2023-03-03T08:32:23;21.70;43.50
38263;DHT22;24054;50.128;19.730;2023-03-03T08:34:50;21.70;43.30
38263;DHT22;24054;50.128;19.730;2023-03-03T08:37:17;21.70;43.10
38263;DHT22;24054;50.128;19.730;2023-03-03T08:39:45;21.70;42.80
38263;DHT22;24054;50.128;19.730;2023-03-03T08:42:12;21.70;42.80
38263;DHT22;24054;50.128;19.730;2023-03-03T08:44:39;21.60;42.90
38263;DHT22;24054;50.128;19.730;2023-03-03T08:47:06;21.60;42.90
38263;DHT22;24054;50.128;19.730;2023-03-03T08:49:34;21.60;42.90
38263;DHT22;24054;50.128;19.730;2023-03-03T08:52:01;21.60;42.90
38263;DHT22;24054;50.128;19.730;2023-03-03T08:54:29;21.60;42.90
38263;DHT22;24054;50.128;19.730;2023-03-03T08:56:56;21.60;42.80
38263;DHT22;24054;50.128;19.730;2023-03-03T08:59:23;21.60;42.90
38263;DHT22;24054;50.128;19.730;2023-03-03T09:01:50;21.70;42.90
38263;DHT22;24054;50.128;19.730;2023-03-03T09:04:17;21.60;42.80
38263;DHT22;24054;50.128;19.730;2023-03-03T09:06:46;21.70;42.90
38263;DHT22;24054;50.128;19.730;2023-03-03T09:09:13;21.70;42.90
38263;DHT22;24054;50.128;19.730;2023-03-03T09:11:40;21.70;43.00
38263;DHT22;24054;50.128;19.730;2023-03-03T09:14:11;21.70;43.00
38263;DHT22;24054;50.128;19.730;2023-03-03T09:16:40;21.70;43.00
38263;DHT22;24054;50.128;19.730;2023-03-03T09:19:23;21.70;43.10
38263;DHT22;24054;50.128;19.730;2023-03-03T09:21:58;21.70;43.30
38263;DHT22;24054;50.128;19.730;2023-03-03T09:24:29;21.70;43.30
38263;DHT22;24054;50.128;19.730;2023-03-03T09:26:57;21.70;43.20
38263;DHT22;24054;50.128;19.730;2023-03-03T09:29:26;21.70;43.30
38263;DHT22;24054;50.128;19.730;2023-03-03T09:31:57;21.70;43.30
38263;DHT22;24054;50.128;19.730;2023-03-03T09:34:37;21.80;43.90
38263;DHT22;24054;50.128;19.730;2023-03-03T09:37:17;21.80;43.30
38263;DHT22;24054;50.128;19.730;2023-03-03T09:39:49;21.80;43.30
38263;DHT22;24054;50.128;19.730;2023-03-03T09:42:27;21.80;43.30
38263;DHT22;24054;50.128;19.730;2023-03-03T09:45:35;21.80;43.30
38263;DHT22;24054;50.128;19.730;2023-03-03T09:48:31;21.80;43.30
38263;DHT22;24054;50.128;19.730;2023-03-03T09:54:06;21.80;43.50
38263;DHT22;24054;50.128;19.730;2023-03-03T09:56:40;21.80;43.70
38263;DHT22;24054;50.128;19.730;2023-03-03T09:59:25;21.80;44.00
38263;DHT22;24054;50.128;19.730;2023-03-03T10:02:12;21.90;44.00
38263;DHT22;24054;50.128;19.730;2023-03-03T10:04:51;21.90;43.90
38263;DHT22;24054;50.128;19.730;2023-03-03T10:07:30;21.90;44.00
38263;DHT22;24054;50.128;19.730;2023-03-03T10:10:18;21.90;43.90
38263;DHT22;24054;50.128;19.730;2023-03-03T10:12:59;22.00;43.90
38263;DHT22;24054;50.128;19.730;2023-03-03T10:15:38;21.90;43.90
38263;DHT22;24054;50.128;19.730;2023-03-03T10:18:20;22.00;44.00
38263;DHT22;24054;50.128;19.730;2023-03-03T10:20:54;22.00;44.00
38263;DHT22;24054;50.128;19.730;2023-03-03T10:23:40;22.00;44.10
38263;DHT22;24054;50.128;19.730;2023-03-03T10:26:20;22.00;44.10
38263;DHT22;24054;50.128;19.730;2023-03-03T10:29:02;22.00;44.20
38263;DHT22;24054;50.128;19.730;2023-03-03T10:31:40;22.00;44.20
38263;DHT22;24054;50.128;19.730;2023-03-03T10:34:25;22.00;44.20
38263;DHT22;24054;50.128;19.730;2023-03-03T10:36:58;22.00;44.30
38263;DHT22;24054;50.128;19.730;2023-03-03T10:39:44;22.00;44.30
38263;DHT22;24054;50.128;19.730;2023-03-03T10:42:24;22.00;44.30
38263;DHT22;24054;50.128;19.730;2023-03-03T10:45:09;22.00;44.30
38263;DHT22;24054;50.128;19.730;2023-03-03T10:47:53;22.10;44.40
38263;DHT22;24054;50.128;19.730;2023-03-03T10:50:29;22.00;44.40
38263;DHT22;24054;50.128;19.730;2023-03-03T10:53:08;22.10;44.50
38263;DHT22;24054;50.128;19.730;2023-03-03T10:55:46;22.00;44.50
38263;DHT22;24054;50.128;19.730;2023-03-03T10:58:31;22.00;44.70
38263;DHT22;24054;50.128;19.730;2023-03-03T11:01:07;22.10;44.60
38263;DHT22;24054;50.128;19.730;2023-03-03T11:03:47;22.10;44.50
38263;DHT22;24054;50.128;19.730;2023-03-03T11:06:21;22.20;44.60
38263;DHT22;24054;50.128;19.730;2023-03-03T11:08:53;22.10;44.60
38263;DHT22;24054;50.128;19.730;2023-03-03T11:11:28;22.10;44.60
38263;DHT22;24054;50.128;19.730;2023-03-03T11:14:04;22.10;44.60
38263;DHT22;24054;50.128;19.730;2023-03-03T11:16:40;22.10;44.60
38263;DHT22;24054;50.128;19.730;2023-03-03T11:19:23;22.10;44.70
38263;DHT22;24054;50.128;19.730;2023-03-03T11:21:59;22.10;44.80
38263;DHT22;24054;50.128;19.730;2023-03-03T11:24:40;22.10;45.00
38263;DHT22;24054;50.128;19.730;2023-03-03T11:27:29;22.10;45.10
38263;DHT22;24054;50.128;19.730;2023-03-03T11:30:19;22.10;45.10
38263;DHT22;24054;50.128;19.730;2023-03-03T11:32:51;22.10;45.20
38263;DHT22;24054;50.128;19.730;2023-03-03T11:35:22;22.10;45.20
38263;DHT22;24054;50.128;19.730;2023-03-03T11:37:58;22.10;45.30
38263;DHT22;24054;50.128;19.730;2023-03-03T11:40:31;22.10;45.30
38263;DHT22;24054;50.128;19.730;2023-03-03T11:43:09;22.10;45.20
38263;DHT22;24054;50.128;19.730;2023-03-03T11:45:42;22.00;45.10
38263;DHT22;24054;50.128;19.730;2023-03-03T11:48:15;22.00;45.70
38263;DHT22;24054;50.128;19.730;2023-03-03T11:50:52;22.00;45.20
38263;DHT22;24054;50.128;19.730;2023-03-03T11:53:32;22.00;45.00
38263;DHT22;24054;50.128;19.730;2023-03-03T11:56:06;21.90;45.10
38263;DHT22;24054;50.128;19.730;2023-03-03T11:58:39;21.90;45.10
38263;DHT22;24054;50.128;19.730;2023-03-03T12:01:16;21.90;44.90
38263;DHT22;24054;50.128;19.730;2023-03-03T12:03:48;21.90;44.90
38263;DHT22;24054;50.128;19.730;2023-03-03T12:06:24;21.90;45.00
38263;DHT22;24054;50.128;19.730;2023-03-03T12:09:15;21.90;44.90
38263;DHT22;24054;50.128;19.730;2023-03-03T12:11:48;21.90;45.00
38263;DHT22;24054;50.128;19.730;2023-03-03T12:14:32;21.90;45.00
38263;DHT22;24054;50.128;19.730;2023-03-03T12:17:08;21.90;45.00
38263;DHT22;24054;50.128;19.730;2023-03-03T12:19:45;22.00;45.00
38263;DHT22;24054;50.128;19.730;2023-03-03T12:22:31;22.00;45.00
38263;DHT22;24054;50.128;19.730;2023-03-03T12:25:14;22.00;44.90
38263;DHT22;24054;50.128;19.730;2023-03-03T12:27:52;22.00;44.90
38263;DHT22;24054;50.128;19.730;2023-03-03T12:30:31;22.00;44.90
38263;DHT22;24054;50.128;19.730;2023-03-03T12:33:20;22.00;44.80
38263;DHT22;24054;50.128;19.730;2023-03-03T12:35:57;22.10;44.90
38263;DHT22;24054;50.128;19.730;2023-03-03T12:38:35;22.00;44.70
38263;DHT22;24054;50.128;19.730;2023-03-03T12:41:07;22.10;44.70
38263;DHT22;24054;50.128;19.730;2023-03-03T12:43:47;22.10;45.20
38263;DHT22;24054;50.128;19.730;2023-03-03T12:46:23;22.10;44.60
38263;DHT22;24054;50.128;19.730;2023-03-03T12:48:53;22.10;44.50
38263;DHT22;24054;50.128;19.730;2023-03-03T12:51:32;22.10;44.60
38263;DHT22;24054;50.128;19.730;2023-03-03T12:54:33;22.10;44.50
38263;DHT22;24054;50.128;19.730;2023-03-03T12:57:10;22.20;44.50
38263;DHT22;24054;50.128;19.730;2023-03-03T12:59:46;22.20;44.50
38263;DHT22;24054;50.128;19.730;2023-03-03T13:02:32;22.20;44.50
38263;DHT22;24054;50.128;19.730;2023-03-03T13:05:20;22.20;44.70
38263;DHT22;24054;50.128;19.730;2023-03-03T13:08:02;22.20;44.80
38263;DHT22;24054;50.128;19.730;2023-03-03T13:10:38;22.20;44.90
38263;DHT22;24054;50.128;19.730;2023-03-03T13:13:10;22.20;45.10
38263;DHT22;24054;50.128;19.730;2023-03-03T13:15:44;22.20;45.30
38263;DHT22;24054;50.128;19.730;2023-03-03T13:18:27;22.20;45.30
38263;DHT22;24054;50.128;19.730;2023-03-03T13:21:02;22.20;45.40
38263;DHT22;24054;50.128;19.730;2023-03-03T13:23:38;22.20;45.60
38263;DHT22;24054;50.128;19.730;2023-03-03T13:26:12;22.10;45.50
38263;DHT22;24054;50.128;19.730;2023-03-03T13:28:54;22.10;45.30
38263;DHT22;24054;50.128;19.730;2023-03-03T13:31:30;22.10;45.30
38263;DHT22;24054;50.128;19.730;2023-03-03T13:33:59;22.10;45.40
38263;DHT22;24054;50.128;19.730;2023-03-03T13:36:33;22.10;45.40
38263;DHT22;24054;50.128;19.730;2023-03-03T13:39:07;22.10;45.60
38263;DHT22;24054;50.128;19.730;2023-03-03T13:41:44;22.00;45.30
38263;DHT22;24054;50.128;19.730;2023-03-03T13:44:19;22.00;45.30
38263;DHT22;24054;50.128;19.730;2023-03-03T13:46:59;22.00;45.40
38263;DHT22;24054;50.128;19.730;2023-03-03T13:49:39;22.00;45.40
38263;DHT22;24054;50.128;19.730;2023-03-03T13:52:13;22.00;45.60
38263;DHT22;24054;50.128;19.730;2023-03-03T13:54:52;22.00;45.70
38263;DHT22;24054;50.128;19.730;2023-03-03T13:57:38;22.00;45.90
38263;DHT22;24054;50.128;19.730;2023-03-03T14:00:18;21.90;45.50
38263;DHT22;24054;50.128;19.730;2023-03-03T14:02:58;21.90;45.70
38263;DHT22;24054;50.128;19.730;2023-03-03T14:05:35;21.90;45.60
38263;DHT22;24054;50.128;19.730;2023-03-03T14:08:11;21.90;45.80
38263;DHT22;24054;50.128;19.730;2023-03-03T14:10:43;21.90;45.90
38263;DHT22;24054;50.128;19.730;2023-03-03T14:13:20;21.90;46.00
38263;DHT22;24054;50.128;19.730;2023-03-03T14:15:55;21.80;45.80
38263;DHT22;24054;50.128;19.730;2023-03-03T14:18:27;21.80;45.60
38263;DHT22;24054;50.128;19.730;2023-03-03T14:20:57;21.80;46.10
38263;DHT22;24054;50.128;19.730;2023-03-03T14:23:32;21.80;46.50
38263;DHT22;24054;50.128;19.730;2023-03-03T14:26:07;21.80;46.70
38263;DHT22;24054;50.128;19.730;2023-03-03T14:28:39;21.80;47.10
38263;DHT22;24054;50.128;19.730;2023-03-03T14:31:20;21.90;47.50
38263;DHT22;24054;50.128;19.730;2023-03-03T14:33:57;22.00;47.40
38263;DHT22;24054;50.128;19.730;2023-03-03T14:36:29;22.00;47.40
38263;DHT22;24054;50.128;19.730;2023-03-03T14:38:58;22.10;47.60
38263;DHT22;24054;50.128;19.730;2023-03-03T14:41:38;22.10;47.50
38263;DHT22;24054;50.128;19.730;2023-03-03T14:44:27;22.10;47.30
38263;DHT22;24054;50.128;19.730;2023-03-03T14:49:42;22.10;47.00
38263;DHT22;24054;50.128;19.730;2023-03-03T14:52:19;22.10;47.20
38263;DHT22;24054;50.128;19.730;2023-03-03T14:54:51;22.10;47.50
38263;DHT22;24054;50.128;19.730;2023-03-03T14:57:20;22.20;47.90
38263;DHT22;24054;50.128;19.730;2023-03-03T15:00:00;22.20;47.70
38263;DHT22;24054;50.128;19.730;2023-03-03T15:02:37;22.20;47.60
38263;DHT22;24054;50.128;19.730;2023-03-03T15:05:30;22.20;47.90
38263;DHT22;24054;50.128;19.730;2023-03-03T15:08:08;22.30;47.70
38263;DHT22;24054;50.128;19.730;2023-03-03T15:10:38;22.30;47.70
38263;DHT22;24054;50.128;19.730;2023-03-03T15:13:30;22.30;47.70
38263;DHT22;24054;50.128;19.730;2023-03-03T15:16:04;22.30;47.60
38263;DHT22;24054;50.128;19.730;2023-03-03T15:19:06;22.40;47.50
38263;DHT22;24054;50.128;19.730;2023-03-03T15:21:43;22.40;47.40
38263;DHT22;24054;50.128;19.730;2023-03-03T15:24:23;22.40;47.30
38263;DHT22;24054;50.128;19.730;2023-03-03T15:26:57;23.60;48.00
38263;DHT22;24054;50.128;19.730;2023-03-03T15:29:30;22.40;47.20
38263;DHT22;24054;50.128;19.730;2023-03-03T15:32:01;22.40;47.10
38263;DHT22;24054;50.128;19.730;2023-03-03T15:34:39;22.40;47.10
38263;DHT22;24054;50.128;19.730;2023-03-03T15:37:25;22.40;47.00
38263;DHT22;24054;50.128;19.730;2023-03-03T15:40:00;22.40;47.00
38263;DHT22;24054;50.128;19.730;2023-03-03T15:42:34;22.40;46.90
38263;DHT22;24054;50.128;19.730;2023-03-03T15:45:11;22.40;46.80
38263;DHT22;24054;50.128;19.730;2023-03-03T15:48:00;22.40;46.70
38263;DHT22;24054;50.128;19.730;2023-03-03T15:50:40;22.40;46.70
38263;DHT22;24054;50.128;19.730;2023-03-03T15:53:27;22.40;46.80
38263;DHT22;24054;50.128;19.730;2023-03-03T15:56:13;22.30;46.40
38263;DHT22;24054;50.128;19.730;2023-03-03T15:59:09;22.30;46.30